Time;durP1;ratioP1;P1;durP2;ratioP2;P2;SDS_P1;SDS_P2;PMS_P1;PMS_P2;Temp;Humidity;BMP_temperature;BMP_pressure;BME280_temperature;BME280_humidity;BME280_pressure;Samples;Min_cycle;Max_cycle;Signal;HPM_P1;HPM_P2
2022/08/30 00:02:46;;;;;;;3.50;3.10;;;;;;;15.23;77.29;100403.44;130343;1267;108551;-80
2022/08/30 00:05:52;;;;;;;6.70;3.60;;;;;;;15.24;77.10;100400.23;130490;1267;108880;-81
2022/08/30 00:08:58;;;;;;;6.10;3.40;;;;;;;15.27;77.69;100401.73;130457;1268;105809;-81
2022/08/30 00:12:04;;;;;;;6.30;4.10;;;;;;;15.30;77.65;100405.67;130346;1266;107821;-81
2022/08/30 00:15:12;;;;;;;5.50;4.10;;;;;;;15.29;77.62;100403.10;130465;1268;108703;-80
2022/08/30 00:18:19;;;;;;;4.70;3.80;;;;;;;15.29;77.90;100402.42;129419;1267;1345907;-81
2022/08/30 00:21:25;;;;;;;5.80;3.90;;;;;;;15.29;78.21;100406.77;130440;1268;108707;-81
2022/08/30 00:24:31;;;;;;;6.30;4.10;;;;;;;15.30;78.44;100409.34;130535;1266;108602;-81
2022/08/30 00:27:36;;;;;;;8.10;4.10;;;;;;;15.33;78.51;100405.25;130487;1268;108850;-82
2022/08/30 00:30:43;;;;;;;4.60;3.80;;;;;;;15.36;78.54;100407.26;130228;1267;108712;-82
2022/08/30 00:33:49;;;;;;;6.40;4.50;;;;;;;15.37;78.58;100407.98;130452;1268;108841;-82
2022/08/30 00:36:54;;;;;;;6.10;4.10;;;;;;;15.37;78.66;100411.01;130445;1267;108788;-82
2022/08/30 00:39:59;;;;;;;7.40;4.20;;;;;;;15.38;78.86;100412.52;130456;1267;108791;-82
2022/08/30 00:43:10;;;;;;;7.00;3.90;;;;;;;15.39;78.94;100410.62;130452;1268;109009;-82
2022/08/30 00:46:15;;;;;;;5.10;4.30;;;;;;;15.42;78.87;100408.34;130459;1267;108642;-82
2022/08/30 00:49:20;;;;;;;4.70;4.20;;;;;;;15.42;79.11;100404.88;130458;1268;108861;-82
2022/08/30 00:52:26;;;;;;;6.40;4.20;;;;;;;15.40;79.14;100407.82;130484;1266;109167;-82
2022/08/30 00:55:32;;;;;;;5.90;3.70;;;;;;;15.38;79.33;100412.50;130462;1268;107622;-81
2022/08/30 00:58:42;;;;;;;5.00;3.80;;;;;;;15.37;79.51;100409.80;130445;1267;108746;-82
2022/08/30 01:01:48;;;;;;;7.50;3.90;;;;;;;15.39;79.74;100410.22;130504;1267;109371;-81
2022/08/30 01:04:54;;;;;;;8.60;5.20;;;;;;;15.43;79.70;100409.00;130497;1267;107594;-81
2022/08/30 01:08:00;;;;;;;5.40;4.70;;;;;;;15.46;79.84;100406.43;130433;1268;108953;-81
2022/08/30 01:11:06;;;;;;;6.70;4.60;;;;;;;15.44;80.04;100405.13;130495;1268;106866;-82
2022/08/30 01:14:13;;;;;;;7.20;4.60;;;;;;;15.42;79.98;100401.03;130500;1267;108863;-81
2022/08/30 01:17:19;;;;;;;5.40;4.50;;;;;;;15.44;80.37;100400.32;130494;1268;109236;-81
2022/08/30 01:20:31;;;;;;;6.50;4.80;;;;;;;15.45;80.99;100399.67;130439;1267;108582;-82
2022/08/30 01:23:41;;;;;;;6.40;5.00;;;;;;;15.48;80.88;100402.07;130504;1268;108790;-80
2022/08/30 01:26:47;;;;;;;6.90;5.30;;;;;;;15.50;80.84;100406.05;130496;1266;107453;-81
2022/08/30 01:29:53;;;;;;;7.80;5.20;;;;;;;15.51;81.45;100405.98;130559;1267;108803;-81
2022/08/30 01:33:02;;;;;;;6.10;4.80;;;;;;;15.46;81.91;100403.84;130518;1266;107944;-81
2022/08/30 01:36:11;;;;;;;8.40;6.00;;;;;;;15.47;81.63;100408.52;130504;1266;108169;-81
2022/08/30 01:39:18;;;;;;;8.20;5.70;;;;;;;15.50;81.89;100407.95;130496;1266;108673;-82
2022/08/30 01:42:24;;;;;;;9.80;6.20;;;;;;;15.52;82.36;100409.27;130551;1268;108852;-82
2022/08/30 01:45:29;;;;;;;7.90;5.50;;;;;;;15.48;82.66;100407.08;130433;1266;108535;-82
2022/08/30 01:48:35;;;;;;;7.10;5.50;;;;;;;15.44;83.09;100404.59;130584;1267;108695;-82
2022/08/30 01:51:41;;;;;;;8.30;5.60;;;;;;;15.41;83.65;100408.17;130544;1268;108142;-81
2022/08/30 01:54:47;;;;;;;7.40;5.70;;;;;;;15.38;83.87;100398.68;130481;1267;109122;-81
2022/08/30 01:57:52;;;;;;;7.90;6.20;;;;;;;15.36;83.85;100399.92;130451;1267;108668;-81
2022/08/30 02:00:58;;;;;;;6.40;5.50;;;;;;;15.34;84.01;100400.85;130451;1268;108716;-81
2022/08/30 02:04:05;;;;;;;9.90;6.20;;;;;;;15.33;84.51;100399.38;130509;1267;108733;-77
2022/08/30 02:07:11;;;;;;;8.00;5.60;;;;;;;15.31;84.51;100399.18;130503;1267;109054;-77
2022/08/30 02:10:16;;;;;;;6.70;5.90;;;;;;;15.33;84.29;100397.12;130506;1267;108589;-76
2022/08/30 02:13:22;;;;;;;9.50;6.20;;;;;;;15.37;84.19;100401.69;130425;1267;109041;-76
2022/08/30 02:16:27;;;;;;;7.60;5.50;;;;;;;15.39;84.63;100400.98;130350;1268;108605;-75
2022/08/30 02:19:33;;;;;;;7.30;5.70;;;;;;;15.42;84.89;100404.17;130346;1268;109093;-75
2022/08/30 02:22:38;;;;;;;11.40;6.50;;;;;;;15.44;85.02;100409.10;130405;1268;108851;-76
2022/08/30 02:25:44;;;;;;;8.00;6.30;;;;;;;15.46;85.22;100415.38;130503;1268;109036;-76
2022/08/30 02:28:51;;;;;;;7.00;5.80;;;;;;;15.49;84.81;100411.93;130489;1268;108823;-76
2022/08/30 02:31:56;;;;;;;7.70;5.70;;;;;;;15.52;85.42;100416.59;130509;1268;108471;-76
2022/08/30 02:35:01;;;;;;;9.20;6.30;;;;;;;15.57;85.20;100416.71;130509;1268;108644;-76
2022/08/30 02:38:08;;;;;;;8.40;6.10;;;;;;;15.63;84.83;100411.32;130487;1267;108652;-78
2022/08/30 02:41:13;;;;;;;8.60;6.30;;;;;;;15.72;84.92;100411.17;130534;1268;109338;-76
2022/08/30 02:44:19;;;;;;;10.10;6.30;;;;;;;15.74;84.83;100411.71;130368;1268;108703;-75
2022/08/30 02:47:24;;;;;;;7.00;5.60;;;;;;;15.78;85.00;100410.16;130420;1267;108634;-75
2022/08/30 02:50:30;;;;;;;7.30;5.80;;;;;;;15.84;84.95;100411.65;130329;1268;108779;-75
2022/08/30 02:53:35;;;;;;;8.10;6.80;;;;;;;15.87;85.31;100416.27;130432;1268;107740;-76
2022/08/30 02:56:41;;;;;;;8.10;7.20;;;;;;;15.83;85.40;100412.06;130475;1267;108678;-82
2022/08/30 02:59:46;;;;;;;9.70;6.20;;;;;;;15.83;85.67;100412.73;130603;1267;108711;-82
2022/08/30 03:02:52;;;;;;;7.40;6.30;;;;;;;15.83;85.74;100417.39;130571;1268;107019;-80
2022/08/30 03:05:58;;;;;;;9.60;6.70;;;;;;;15.77;85.83;100416.89;130659;1268;108681;-78
2022/08/30 03:09:03;;;;;;;9.60;7.20;;;;;;;15.74;85.64;100421.98;130499;1267;109749;-80
2022/08/30 03:12:09;;;;;;;10.10;7.00;;;;;;;15.72;85.94;100425.16;130408;1268;108752;-79
2022/08/30 03:15:16;;;;;;;7.60;6.80;;;;;;;15.72;85.83;100428.72;130419;1267;109048;-78
2022/08/30 03:18:23;;;;;;;10.40;6.70;;;;;;;15.69;85.97;100429.41;130408;1268;109888;-78
2022/08/30 03:21:28;;;;;;;9.50;6.80;;;;;;;15.69;85.83;100437.02;130508;1267;108760;-78
2022/08/30 03:24:34;;;;;;;9.10;6.70;;;;;;;15.68;86.00;100437.66;130479;1267;108759;-79
2022/08/30 03:27:40;;;;;;;13.10;7.50;;;;;;;15.67;86.11;100436.49;130402;1267;108868;-79
2022/08/30 03:30:46;;;;;;;12.50;7.50;;;;;;;15.60;86.02;100437.50;130381;1268;108534;-80
2022/08/30 03:33:52;;;;;;;10.00;7.70;;;;;;;15.54;86.61;100437.19;130356;1267;108931;-79
2022/08/30 03:37:00;;;;;;;9.80;7.20;;;;;;;15.46;86.83;100435.46;130333;1268;108841;-78
2022/08/30 03:40:07;;;;;;;8.00;7.20;;;;;;;15.39;86.46;100433.37;130454;1267;107327;-79
2022/08/30 03:43:13;;;;;;;9.20;7.60;;;;;;;15.36;86.38;100429.77;130400;1267;109045;-78
2022/08/30 03:46:18;;;;;;;9.30;6.90;;;;;;;15.37;86.41;100426.13;130392;1267;107702;-78
2022/08/30 03:49:24;;;;;;;9.30;6.70;;;;;;;15.40;86.53;100424.79;130448;1266;108765;-78
2022/08/30 03:52:30;;;;;;;8.30;6.90;;;;;;;15.43;86.39;100427.64;130416;1268;108667;-78
2022/08/30 03:55:35;;;;;;;9.50;6.80;;;;;;;15.44;86.19;100428.79;130491;1268;108738;-78
2022/08/30 03:58:41;;;;;;;8.10;7.20;;;;;;;15.46;86.21;100433.33;130610;1268;109092;-78
2022/08/30 04:01:46;;;;;;;7.60;6.40;;;;;;;15.45;86.18;100440.05;130510;1268;108602;-78
2022/08/30 04:04:52;;;;;;;8.40;6.50;;;;;;;15.43;86.35;100436.83;130384;1266;109012;-78
2022/08/30 04:07:57;;;;;;;11.20;7.60;;;;;;;15.40;86.50;100437.73;130419;1268;108893;-78
2022/08/30 04:11:02;;;;;;;9.10;7.40;;;;;;;15.37;86.73;100445.16;130423;1268;108711;-78
2022/08/30 04:14:08;;;;;;;9.50;7.80;;;;;;;15.37;87.14;100443.97;130393;1268;107906;-79
2022/08/30 04:17:13;;;;;;;9.90;7.30;;;;;;;15.39;87.10;100440.93;130426;1268;108485;-78
2022/08/30 04:20:19;;;;;;;10.50;6.90;;;;;;;15.43;87.06;100446.72;130360;1268;108753;-78
2022/08/30 04:23:24;;;;;;;9.20;7.30;;;;;;;15.46;87.32;100450.64;130365;1268;108593;-78
2022/08/30 04:26:30;;;;;;;9.30;7.40;;;;;;;15.50;87.35;100452.73;130496;1268;108604;-78
2022/08/30 04:29:36;;;;;;;10.10;7.70;;;;;;;15.55;87.30;100449.20;130544;1268;108669;-79
2022/08/30 04:32:42;;;;;;;7.40;5.90;;;;;;;15.60;87.35;100452.20;130421;1268;109128;-78
2022/08/30 04:35:49;;;;;;;7.20;5.50;;;;;;;15.68;87.37;100450.17;130469;1268;108518;-78
2022/08/30 04:38:54;;;;;;;5.10;4.60;;;;;;;15.86;87.42;100456.77;130397;1268;108573;-78
2022/08/30 04:42:00;;;;;;;9.70;7.90;;;;;;;16.09;87.45;100457.75;130357;1266;108774;-78
2022/08/30 04:45:08;;;;;;;11.10;8.30;;;;;;;16.26;87.15;100459.65;130641;1267;108723;-79
2022/08/30 04:48:14;;;;;;;8.10;7.20;;;;;;;16.33;87.53;100465.16;130442;1268;108246;-79
2022/08/30 04:51:20;;;;;;;8.50;6.60;;;;;;;16.38;87.36;100468.11;130529;1268;108742;-84
2022/08/30 04:54:25;;;;;;;13.30;8.30;;;;;;;16.47;87.53;100466.95;130651;1267;108727;-85
2022/08/30 04:57:30;;;;;;;11.60;9.80;;;;;;;16.53;88.02;100472.98;130525;1268;107869;-82
2022/08/30 05:00:37;;;;;;;13.10;10.40;;;;;;;16.46;88.40;100470.49;130538;1268;109015;-84
2022/08/30 05:03:42;;;;;;;12.40;9.50;;;;;;;16.37;88.81;100472.11;130529;1268;108826;-83
2022/08/30 05:06:48;;;;;;;10.70;9.20;;;;;;;16.36;88.89;100474.29;130481;1268;108804;-81
2022/08/30 05:09:53;;;;;;;9.20;7.80;;;;;;;16.37;88.95;100480.61;130466;1268;108835;-80
2022/08/30 05:12:59;;;;;;;10.20;6.90;;;;;;;16.44;88.78;100484.35;130452;1266;108300;-81
2022/08/30 05:16:06;;;;;;;8.30;6.80;;;;;;;16.63;88.62;100487.30;130666;1268;108797;-78
2022/08/30 05:19:11;;;;;;;8.70;6.10;;;;;;;16.73;88.41;100490.86;130674;1267;108363;-79
2022/08/30 05:22:17;;;;;;;9.60;7.40;;;;;;;16.79;88.58;100491.33;130713;1268;109066;-78
2022/08/30 05:25:25;;;;;;;8.90;7.80;;;;;;;16.75;88.52;100491.23;130711;1268;108972;-78
2022/08/30 05:28:30;;;;;;;9.30;7.80;;;;;;;16.69;88.68;100493.97;130439;1268;108891;-80
2022/08/30 05:31:37;;;;;;;8.40;7.40;;;;;;;16.72;88.88;100499.39;130512;1268;109003;-78
2022/08/30 05:34:42;;;;;;;7.60;6.60;;;;;;;16.74;88.83;100496.59;130434;1268;108658;-73
2022/08/30 05:37:48;;;;;;;8.20;6.60;;;;;;;16.85;88.64;100500.47;130386;1268;108755;-73
2022/08/30 05:40:55;;;;;;;8.40;6.70;;;;;;;17.00;88.54;100498.95;130387;1268;107617;-74
2022/08/30 05:44:01;;;;;;;9.40;7.10;;;;;;;17.22;88.33;100499.48;130293;1268;109705;-75
2022/08/30 05:47:07;;;;;;;7.80;6.40;;;;;;;17.20;87.92;100500.43;130347;1268;108682;-72
2022/08/30 05:50:14;;;;;;;7.50;6.00;;;;;;;17.06;88.31;100506.48;130359;1268;108478;-73
2022/08/30 05:53:19;;;;;;;12.40;6.60;;;;;;;17.04;88.56;100508.25;130291;1268;108823;-73
2022/08/30 05:56:26;;;;;;;9.20;6.70;;;;;;;17.00;88.41;100513.92;130324;1266;108637;-73
2022/08/30 05:59:32;;;;;;;8.30;6.40;;;;;;;16.88;89.15;100511.23;130382;1268;108680;-73
2022/08/30 06:02:37;;;;;;;6.70;5.60;;;;;;;16.86;88.82;100510.64;130328;1268;106932;-73
2022/08/30 06:05:43;;;;;;;5.40;4.40;;;;;;;16.84;88.60;100510.41;130352;1268;108915;-73
2022/08/30 06:08:49;;;;;;;6.60;5.30;;;;;;;16.89;88.55;100510.80;130345;1268;108703;-72
2022/08/30 06:11:54;;;;;;;6.10;4.90;;;;;;;16.95;88.62;100513.15;130398;1266;108690;-73
2022/08/30 06:15:00;;;;;;;5.00;4.30;;;;;;;16.98;88.35;100518.00;130354;1268;107526;-73
2022/08/30 06:18:06;;;;;;;4.10;3.60;;;;;;;16.99;88.31;100520.75;130417;1268;108591;-72
2022/08/30 06:21:17;;;;;;;5.10;3.50;;;;;;;17.00;88.10;100523.86;130383;1268;108924;-73
2022/08/30 06:24:22;;;;;;;4.40;3.30;;;;;;;17.01;88.09;100527.98;130449;1267;108820;-75
2022/08/30 06:27:27;;;;;;;3.60;3.20;;;;;;;16.99;88.03;100523.81;130380;1268;109003;-74
2022/08/30 06:30:33;;;;;;;5.50;3.30;;;;;;;16.96;88.20;100521.30;130384;1268;108685;-74
2022/08/30 06:33:39;;;;;;;3.50;2.90;;;;;;;17.03;88.35;100520.92;130324;1268;108576;-75
2022/08/30 06:36:45;;;;;;;5.80;3.40;;;;;;;17.18;88.13;100527.48;130313;1268;108816;-75
2022/08/30 06:39:50;;;;;;;3.70;2.90;;;;;;;17.23;87.79;100526.34;130297;1268;107559;-73
2022/08/30 06:42:55;;;;;;;3.90;3.00;;;;;;;17.34;87.88;100526.13;130071;1268;108866;-73
2022/08/30 06:46:06;;;;;;;4.80;3.40;;;;;;;17.47;87.60;100522.91;130375;1268;108796;-72
2022/08/30 06:49:11;;;;;;;3.80;3.20;;;;;;;17.62;87.70;100529.40;130366;1266;108920;-73
2022/08/30 06:52:16;;;;;;;4.50;3.00;;;;;;;17.86;87.20;100529.86;130345;1268;108889;-72
2022/08/30 06:55:22;;;;;;;3.80;2.80;;;;;;;18.06;87.09;100527.71;130390;1268;108849;-75
2022/08/30 06:58:28;;;;;;;4.80;3.10;;;;;;;18.34;86.82;100524.23;130357;1267;107837;-72
2022/08/30 07:01:34;;;;;;;3.10;2.50;;;;;;;18.67;86.27;100522.09;130362;1266;109154;-73
2022/08/30 07:04:39;;;;;;;4.20;2.80;;;;;;;18.88;85.11;100527.67;130379;1268;108665;-73
2022/08/30 07:07:44;;;;;;;3.80;2.20;;;;;;;18.78;84.47;100533.10;130366;1267;108713;-73
2022/08/30 07:10:50;;;;;;;2.90;2.10;;;;;;;18.84;85.13;100531.34;130335;1268;108608;-72
2022/08/30 07:13:56;;;;;;;2.20;1.80;;;;;;;19.12;84.38;100538.92;130359;1268;108746;-73
2022/08/30 07:18:49;;;;;;;2.10;1.90;;;;;;;19.18;82.71;100541.65;130305;1268;108997;-73
2022/08/30 07:20:27;;;;;;;2.80;2.00;;;;;;;19.05;83.03;100544.38;130371;1268;109198;-73
2022/08/30 07:23:33;;;;;;;2.70;2.20;;;;;;;19.09;83.78;100545.83;130378;1268;108581;-73
2022/08/30 07:26:41;;;;;;;2.20;1.80;;;;;;;19.03;82.07;100554.29;130344;1267;108962;-73
2022/08/30 07:29:48;;;;;;;1.80;1.60;;;;;;;18.86;82.54;100547.17;130331;1268;109695;-73
2022/08/30 07:32:53;;;;;;;1.90;1.60;;;;;;;18.80;82.62;100552.02;130345;1268;108965;-73
2022/08/30 07:35:59;;;;;;;1.70;1.60;;;;;;;18.85;83.11;100554.99;130399;1268;108858;-73
2022/08/30 07:39:06;;;;;;;2.80;1.90;;;;;;;19.06;83.21;100555.01;130343;1267;107189;-73
2022/08/30 07:42:11;;;;;;;2.00;1.60;;;;;;;19.28;82.69;100559.55;130382;1268;108884;-73
2022/08/30 07:45:17;;;;;;;2.00;1.80;;;;;;;19.44;82.15;100557.80;130360;1268;108276;-73
2022/08/30 07:48:22;;;;;;;2.10;1.50;;;;;;;19.73;82.16;100561.63;130380;1267;109170;-73
2022/08/30 07:51:29;;;;;;;2.00;1.70;;;;;;;19.98;81.33;100564.79;130366;1268;108634;-73
2022/08/30 07:54:34;;;;;;;4.70;2.30;;;;;;;20.11;80.77;100562.39;130368;1268;108084;-73
2022/08/30 07:57:39;;;;;;;2.20;1.50;;;;;;;20.18;79.86;100564.25;130593;1268;108787;-73
2022/08/30 08:00:45;;;;;;;3.20;1.90;;;;;;;20.13;79.09;100564.09;130488;1268;108674;-73
2022/08/30 08:03:51;;;;;;;2.10;1.50;;;;;;;20.06;79.73;100566.92;130341;1268;107375;-75
2022/08/30 08:06:56;;;;;;;2.70;1.60;;;;;;;20.19;80.29;100567.02;130385;1267;108822;-73
2022/08/30 08:10:02;;;;;;;2.10;1.60;;;;;;;20.37;79.21;100570.88;130581;1268;108743;-73
2022/08/30 08:13:08;;;;;;;4.10;2.40;;;;;;;20.10;76.31;100570.68;130432;1268;108544;-73
2022/08/30 08:16:13;;;;;;;2.00;1.10;;;;;;;19.78;77.05;100571.86;130402;1266;108542;-73
2022/08/30 08:19:19;;;;;;;1.10;1.00;;;;;;;19.72;79.19;100566.34;130431;1267;108635;-73
2022/08/30 08:22:24;;;;;;;1.70;1.20;;;;;;;19.88;78.98;100565.88;130432;1266;108983;-73
2022/08/30 08:25:30;;;;;;;0.80;0.80;;;;;;;20.01;78.25;100565.40;130432;1268;108986;-73
2022/08/30 08:28:35;;;;;;;1.40;0.90;;;;;;;19.99;76.16;100569.14;130474;1267;108789;-73
2022/08/30 08:31:41;;;;;;;1.30;0.90;;;;;;;19.85;76.08;100572.41;130503;1268;108822;-73
2022/08/30 08:34:47;;;;;;;1.00;0.70;;;;;;;19.81;76.66;100573.82;130488;1268;108667;-73
2022/08/30 08:37:52;;;;;;;1.30;0.90;;;;;;;19.80;75.47;100572.91;130460;1267;109214;-73
2022/08/30 08:41:03;;;;;;;1.50;0.90;;;;;;;19.75;74.89;100577.85;130480;1268;108876;-74
2022/08/30 08:44:14;;;;;;;1.20;0.80;;;;;;;19.75;75.80;100576.40;130455;1268;108717;-74
2022/08/30 08:47:25;;;;;;;1.40;0.80;;;;;;;19.94;75.29;100580.77;130478;1267;108891;-74
2022/08/30 08:50:31;;;;;;;1.00;0.90;;;;;;;20.03;75.90;100574.09;130415;1267;108601;-73
2022/08/30 08:53:37;;;;;;;1.60;0.80;;;;;;;20.07;75.74;100575.02;130368;1268;108922;-72
2022/08/30 08:56:43;;;;;;;1.20;0.80;;;;;;;20.15;76.52;100578.85;130352;1268;108707;-73
2022/08/30 08:59:51;;;;;;;2.40;0.80;;;;;;;20.17;75.95;100590.98;130399;1268;105624;-77
2022/08/30 09:03:00;;;;;;;0.80;0.70;;;;;;;19.99;75.88;100588.14;130406;1267;108792;-78
2022/08/30 09:06:15;;;;;;;12.00;6.60;;;;;;;19.82;75.59;100592.49;130386;1268;108660;-78
2022/08/30 09:09:26;;;;;;;3.80;2.20;;;;;;;19.65;76.01;100588.17;130382;1268;109576;-78
2022/08/30 09:12:31;;;;;;;1.70;1.40;;;;;;;19.63;76.31;100590.30;130389;1268;108545;-78
2022/08/30 09:15:37;;;;;;;1.10;0.90;;;;;;;19.72;77.02;100593.45;130386;1268;108608;-78
2022/08/30 09:18:45;;;;;;;1.80;1.10;;;;;;;19.95;76.81;100595.59;130362;1268;108708;-78
2022/08/30 09:21:59;;;;;;;1.80;1.10;;;;;;;20.11;76.06;100591.77;130530;1265;108830;-78
2022/08/30 09:25:09;;;;;;;2.70;1.20;;;;;;;20.11;75.30;100593.31;130456;1268;108850;-78
2022/08/30 09:28:20;;;;;;;1.40;1.00;;;;;;;20.16;75.91;100594.19;130276;1268;109059;-79
2022/08/30 09:31:29;;;;;;;1.60;1.20;;;;;;;20.35;75.75;100596.52;130397;1267;108711;-79
2022/08/30 09:34:34;;;;;;;2.30;1.50;;;;;;;20.44;75.91;100595.27;130404;1268;108817;-79
2022/08/30 09:37:45;;;;;;;3.00;1.00;;;;;;;20.56;76.04;100595.09;130400;1268;108878;-79
2022/08/30 09:40:53;;;;;;;1.30;1.00;;;;;;;20.62;74.28;100593.39;130445;1268;107480;-78
2022/08/30 09:44:11;;;;;;;2.00;1.00;;;;;;;20.43;74.26;100599.44;130411;1268;108697;-79
2022/08/30 09:47:27;;;;;;;1.00;0.90;;;;;;;20.32;74.53;100599.45;130343;1268;108721;-78
2022/08/30 09:50:36;;;;;;;1.10;1.00;;;;;;;20.34;75.46;100601.58;130383;1268;108868;-78
2022/08/30 09:53:50;;;;;;;1.30;1.10;;;;;;;20.34;74.86;100606.36;130368;1268;108871;-78
2022/08/30 09:57:08;;;;;;;1.70;1.20;;;;;;;20.10;74.73;100614.31;130220;1268;108918;-77
2022/08/30 10:00:18;;;;;;;1.40;0.90;;;;;;;19.79;75.06;100613.64;130362;1268;108446;-77
2022/08/30 10:03:32;;;;;;;1.50;1.00;;;;;;;19.74;75.50;100615.51;130465;1268;108567;-77
2022/08/30 10:06:46;;;;;;;2.30;1.10;;;;;;;19.68;75.37;100614.66;130414;1268;108637;-77
2022/08/30 10:10:00;;;;;;;1.00;0.90;;;;;;;19.69;75.53;100616.08;130445;1267;108570;-77
2022/08/30 10:13:22;;;;;;;1.70;1.00;;;;;;;19.63;75.45;100620.02;130438;1268;108890;-79
2022/08/30 10:16:45;;;;;;;1.40;1.00;;;;;;;19.69;75.55;100619.45;130505;1268;108928;-77
2022/08/30 10:20:11;;;;;;;1.90;1.10;;;;;;;19.68;75.51;100621.25;130432;1267;109045;-77
2022/08/30 10:23:21;;;;;;;1.40;1.00;;;;;;;19.74;75.79;100618.91;130389;1268;108665;-77
2022/08/30 10:26:32;;;;;;;1.40;1.10;;;;;;;19.91;75.41;100623.25;130380;1268;108802;-77
2022/08/30 10:29:44;;;;;;;5.10;1.40;;;;;;;20.02;75.49;100617.52;130397;1267;107111;-78
2022/08/30 10:32:58;;;;;;;1.90;1.20;;;;;;;20.06;75.13;100612.97;130466;1268;108736;-78
2022/08/30 10:36:09;;;;;;;1.50;1.10;;;;;;;20.19;75.48;100615.84;130617;1268;108694;-78
2022/08/30 10:39:23;;;;;;;1.50;0.90;;;;;;;20.28;74.93;100614.33;130495;1268;108760;-80
2022/08/30 10:42:34;;;;;;;1.80;1.00;;;;;;;20.22;74.27;100613.66;130449;1265;108960;-78
2022/08/30 10:45:45;;;;;;;1.50;0.90;;;;;;;20.18;75.16;100613.23;130413;1267;109026;-78
2022/08/30 10:48:52;;;;;;;0.80;0.70;;;;;;;20.30;74.98;100611.95;130472;1268;107326;-79
2022/08/30 10:52:05;;;;;;;0.80;0.70;;;;;;;20.31;74.59;100609.36;130524;1268;108797;-78
2022/08/30 10:55:15;;;;;;;1.10;0.80;;;;;;;20.32;74.96;100614.13;130528;1265;108992;-78
2022/08/30 10:58:20;;;;;;;1.50;0.70;;;;;;;20.31;74.68;100613.54;130388;1268;107661;-78
2022/08/30 11:02:02;;;;;;;0.90;0.70;;;;;;;20.31;74.53;100610.91;130302;1268;108772;-78
2022/08/30 11:05:28;;;;;;;1.00;0.80;;;;;;;20.38;74.48;100610.27;129859;1271;109049;-78
2022/08/30 11:08:51;;;;;;;0.90;0.70;;;;;;;20.29;73.79;100611.95;130078;1271;108606;-78
2022/08/30 11:12:25;;;;;;;2.00;1.00;;;;;;;20.04;73.94;100613.18;130112;1271;108789;-78
2022/08/30 11:15:35;;;;;;;1.50;0.80;;;;;;;19.96;74.90;100615.67;130125;1271;109273;-78
2022/08/30 11:18:46;;;;;;;2.10;0.70;;;;;;;20.05;74.88;100609.48;129993;1271;108767;-78
2022/08/30 11:21:52;;;;;;;1.10;0.60;;;;;;;20.03;74.42;100616.77;130042;1271;108632;-78
2022/08/30 11:25:05;;;;;;;1.00;0.50;;;;;;;19.99;73.99;100618.09;130335;1268;108970;-78
2022/08/30 11:28:10;;;;;;;1.70;1.00;;;;;;;20.06;73.99;100615.16;130534;1268;109043;-78
2022/08/30 11:31:33;;;;;;;0.90;0.50;;;;;;;20.17;72.60;100608.95;130587;1268;109566;-78
2022/08/30 11:35:05;;;;;;;2.70;0.60;;;;;;;20.24;72.11;100611.27;130407;1268;108611;-77
2022/08/30 11:38:41;;;;;;;0.80;0.60;;;;;;;20.41;72.56;100609.95;130319;1268;107271;-78
2022/08/30 11:42:08;;;;;;;0.60;0.40;;;;;;;20.53;71.10;100604.55;130518;1268;108658;-78
2022/08/30 11:45:46;;;;;;;1.60;0.60;;;;;;;20.50;70.86;100606.02;130486;1268;108870;-78
2022/08/30 11:48:55;;;;;;;1.20;0.70;;;;;;;20.66;72.06;100606.95;130487;1268;108824;-78
2022/08/30 11:52:19;;;;;;;1.30;0.50;;;;;;;20.86;72.03;100610.00;130366;1268;108504;-78
2022/08/30 11:55:38;;;;;;;1.10;0.60;;;;;;;21.11;71.59;100608.30;130368;1268;108899;-71
2022/08/30 11:58:50;;;;;;;0.90;0.50;;;;;;;21.26;69.08;100607.33;130472;1268;109013;-71
2022/08/30 12:01:56;;;;;;;1.60;0.50;;;;;;;21.29;67.80;100605.11;130416;1268;108847;-71
2022/08/30 12:05:02;;;;;;;1.20;0.50;;;;;;;21.40;67.68;100604.96;130306;1268;108452;-72
2022/08/30 12:08:10;;;;;;;1.60;0.80;;;;;;;21.46;67.45;100604.55;130517;1268;108833;-72
2022/08/30 12:12:01;;;;;;;0.80;0.40;;;;;;;21.50;66.72;100603.16;130479;1268;108980;-72
2022/08/30 12:15:07;;;;;;;1.00;0.40;;;;;;;21.56;68.31;100606.27;130453;1268;107984;-71
2022/08/30 12:18:30;;;;;;;0.60;0.60;;;;;;;21.65;68.16;100604.29;128649;1268;2174748;-72
2022/08/30 12:21:38;;;;;;;0.50;0.50;;;;;;;21.79;69.13;100603.70;130374;1267;108635;-71
2022/08/30 12:24:48;;;;;;;2.20;0.80;;;;;;;21.92;68.18;100601.33;130304;1268;109602;-72
2022/08/30 12:28:10;;;;;;;0.90;0.60;;;;;;;22.00;67.67;100602.52;130313;1268;108684;-72
2022/08/30 12:31:15;;;;;;;;;;;;;;;21.92;64.90;100602.73;130487;1268;108944;-70
2022/08/30 12:34:27;;;;;;;1.40;0.50;;;;;;;21.81;66.23;100599.98;130426;1265;109687;-71
2022/08/30 12:37:36;;;;;;;2.20;0.60;;;;;;;21.78;66.22;100598.58;130507;1265;109037;-72
2022/08/30 12:40:51;;;;;;;0.70;0.50;;;;;;;21.78;66.09;100596.60;130373;1268;108089;-72
2022/08/30 12:43:58;;;;;;;0.80;0.60;;;;;;;21.77;66.40;100594.58;130382;1266;107715;-72
2022/08/30 12:47:05;;;;;;;0.90;0.60;;;;;;;21.76;66.24;100590.13;130386;1268;108583;-72
2022/08/30 12:50:18;;;;;;;1.00;0.60;;;;;;;21.76;66.63;100581.48;130461;1267;108604;-72
2022/08/30 12:53:28;;;;;;;0.90;0.80;;;;;;;21.83;67.42;100581.91;130350;1268;108961;-72
2022/08/30 12:56:49;;;;;;;0.80;0.70;;;;;;;21.90;66.79;100581.11;130411;1268;106669;-72
2022/08/30 12:59:56;;;;;;;1.10;0.80;;;;;;;21.98;67.01;100570.27;130455;1268;108741;-72
2022/08/30 13:03:23;;;;;;;1.10;0.70;;;;;;;22.06;66.53;100569.29;130412;1268;108570;-71
2022/08/30 13:06:44;;;;;;;0.90;0.70;;;;;;;22.09;65.46;100566.84;130392;1268;107893;-72
2022/08/30 13:09:49;;;;;;;3.20;0.80;;;;;;;22.12;66.08;100563.34;130436;1267;108803;-73
2022/08/30 13:13:03;;;;;;;1.10;0.70;;;;;;;22.13;65.28;100564.63;130238;1267;108842;-72
2022/08/30 13:16:23;;;;;;;1.60;0.90;;;;;;;22.06;64.44;100564.39;130463;1265;108905;-72
2022/08/30 13:19:35;;;;;;;6.20;4.80;;;;;;;21.93;64.94;100558.92;130451;1265;108707;-72
2022/08/30 13:22:42;;;;;;;5.60;4.60;;;;;;;21.97;65.67;100552.05;130522;1266;108591;-72
2022/08/30 13:25:48;;;;;;;3.70;2.50;;;;;;;21.95;65.76;100551.17;130424;1268;109001;-72
2022/08/30 13:28:55;;;;;;;1.70;1.40;;;;;;;21.97;66.10;100548.83;130471;1267;108797;-72
2022/08/30 13:32:01;;;;;;;1.40;1.20;;;;;;;21.85;64.07;100552.96;130518;1268;108795;-72
2022/08/30 13:35:10;;;;;;;3.60;2.80;;;;;;;21.56;64.15;100553.37;130409;1267;108575;-71
2022/08/30 13:38:15;;;;;;;1.70;1.10;;;;;;;21.28;64.51;100549.58;130402;1268;108808;-72
2022/08/30 13:41:21;;;;;;;17.00;15.20;;;;;;;21.07;65.09;100549.46;130404;1268;108867;-70
2022/08/30 13:44:26;;;;;;;3.00;2.10;;;;;;;20.94;65.29;100553.52;130391;1266;108935;-71
2022/08/30 13:47:32;;;;;;;3.20;1.30;;;;;;;20.84;65.38;100549.16;130362;1267;108713;-71
2022/08/30 13:50:38;;;;;;;2.20;0.90;;;;;;;20.79;65.25;100551.81;130493;1268;108905;-80
2022/08/30 13:53:43;;;;;;;1.60;0.90;;;;;;;20.72;64.84;100555.67;130494;1268;108795;-80
2022/08/30 13:56:49;;;;;;;1.80;0.80;;;;;;;20.62;64.17;100557.40;130340;1267;108735;-78
2022/08/30 13:59:55;;;;;;;1.00;0.70;;;;;;;20.50;63.49;100554.56;130562;1268;107435;-76
2022/08/30 14:03:01;;;;;;;1.10;1.00;;;;;;;20.40;64.18;100551.73;130333;1268;107629;-75
2022/08/30 14:06:07;;;;;;;1.10;0.80;;;;;;;20.33;64.60;100554.86;130311;1268;108169;-74
2022/08/30 14:09:13;;;;;;;1.50;0.80;;;;;;;20.26;64.26;100556.34;130277;1268;108881;-73
2022/08/30 14:12:18;;;;;;;2.10;1.00;;;;;;;20.22;64.74;100551.22;130428;1268;108794;-73
2022/08/30 14:15:24;;;;;;;3.70;1.10;;;;;;;20.20;65.13;100550.63;130353;1268;108840;-69
2022/08/30 14:18:29;;;;;;;2.20;1.00;;;;;;;20.16;64.71;100557.17;130236;1268;108840;-71